Station: Hindmarsh Island  

  Atmospheric Gas Attenuation - ITU Rec 676-11   ----------------- dB/100km -----------------
Date Time Temp RH % AH g/m3 Dew Point Wind Direction Speed kph Gust kph Barometer mB Rainfall Since 9am 24GHz 47GHz 76GHz 122GHz 134GHz 241GHz
31/08 14:30 20.8 50 9.05 10 19 24 1026.3 0 20.2 25.1 38.7 101.4 96.5 332.6
31/08 14:20 21.2 51 9.45 10.7 17 24 1026.4 0 21.0 25.6 40.0 104.9 100.9 348.2
31/08 14:10 20.6 48 8.59 9.2 17 22 1026.6 0 19.2 24.5 37.1 97.1 91.1 313.7
31/08 14:00 20.5 61 10.85 12.7 15 20 1026.9 0 24.0 28.0 45.8 120.5 119.8 414.3
31/08 13:50 20.2 62 10.84 12.7 15 19 1027.1 0 24.0 28.1 46.0 120.8 120.2 415.4
31/08 13:40 19.7 64 10.87 12.7 15 20 1027.3 0 24.1 28.3 46.4 121.9 121.4 419.5
31/08 13:30 20.1 65 11.3 13.3 17 22 1027.4 0 25.0 28.9 47.9 126.0 126.5 437.5
31/08 13:20 19.1 66 10.82 12.6 19 22 1027.7 0 24.0 28.4 46.6 122.4 121.7 420.5
31/08 13:10 18.7 69 11.05 12.9 19 22 1028 0 24.5 29.0 47.8 125.6 125.5 433.7
31/08 13:00 18.8 71 11.43 13.4 17 24 1028.2 0 25.3 29.6 49.3 129.6 130.5 451.3
31/08 12:50 18.4 72 11.32 13.3 15 20 1028.4 0 25.1 29.5 49.1 129.1 129.7 448.4
31/08 12:40 18.3 75 11.73 13.8 13 20 1028.7 0 26.0 30.3 50.9 133.9 135.6 468.9
31/08 12:30 18.1 73 11.28 13.2 13 17 1028.9 0 25.0 29.6 49.1 129.2 129.7 448.3
31/08 12:20 17 74 10.71 12.3 13 17 1029.2 0 23.9 29.0 47.4 124.6 123.7 427.2
31/08 12:10 17.3 76 11.2 13 13 19 1029.4 0 24.9 29.7 49.3 129.7 130.0 449.2
31/08 12:00 17 76 11 12.7 13 20 1029.6 0 24.5 29.5 48.7 127.9 127.7 441.3
31/08 11:50 17 78 11.29 13.1 15 20 1029.7 0 25.1 30.0 49.9 131.2 131.8 455.5
31/08 11:40 16.9 79 11.36 13.2 13 20 1029.9 0 25.3 30.2 50.3 132.2 133.0 459.6
31/08 11:30 16.6 80 11.3 13.1 15 19 1030 0 25.2 30.2 50.2 132.1 132.6 458.4
31/08 11:20 16.1 80 10.97 12.7 15 19 1030 0 24.5 29.8 49.1 129.1 128.9 445.1
31/08 11:10 15.1 79 10.19 11.5 13 19 1030.2 0 22.9 28.8 46.4 121.9 119.6 412.7
31/08 11:00 14.7 81 10.2 11.5 17 22 1030.4 0 22.9 28.9 46.7 122.7 120.4 415.3
31/08 10:40 14.1 91 11.04 12.7 11 15 1030.5 0 24.8 30.6 50.7 133.4 133.3 460.5
31/08 10:30 13.8 95 11.32 13 11 15 1030.6 0 25.4 31.2 52.2 137.2 138.0 476.6
31/08 10:20 13.1 97 11.07 12.6 11 15 1030.7 0 24.9 31.0 51.5 135.5 135.6 468.1
31/08 10:10 12.8 98 10.98 12.5 9 17 1030.8 0 24.7 31.0 51.3 135.0 134.8 465.4
31/08 10:00 12.8 98 10.98 12.5 11 15 1030.9 0 24.7 31.0 51.3 135.0 134.8 465.4
31/08 09:50 12.5 98 10.78 12.2 11 15 1030.9 0 24.3 30.7 50.6 133.1 132.4 456.9
31/08 09:40 11.9 98 10.38 11.6 11 15 1031 0 23.5 30.2 49.3 129.4 127.6 440.0
31/08 09:30 11.4 98 10.06 11.1 9 15 1031.1 0 22.8 29.8 48.2 126.4 123.7 426.5
31/08 09:20 11.1 98 9.87 10.8 11 13 1031.1 0 22.4 29.6 47.5 124.7 121.4 418.5
31/08 09:10 10.6 98 9.57 10.3 9 13 1031.2 0 21.8 29.2 46.5 122.0 117.9 406.0
31/08 09:00 10.2 98 9.33 9.9 9 13 1031.4 0 21.3 29.0 45.7 119.8 115.1 396.0
31/08 08:50 9.6 98 8.98 9.3 9 13 1031.4 0.2 20.6 28.5 44.5 116.6 110.9 381.4
31/08 08:40 9.4 98 8.87 9.1 9 13 1031.4 0.2 20.4 28.4 44.1 115.6 109.6 376.9
31/08 08:30 9.4 98 8.87 9.1 11 15 1031.4 0.2 20.4 28.4 44.1 115.6 109.6 376.9
31/08 08:20 9.3 98 8.81 9 11 15 1031.4 0.2 20.2 28.3 43.9 115.1 108.9 374.4
31/08 08:10 9.5 98 8.92 9.2 9 15 1031.4 0.2 20.5 28.5 44.3 116.1 110.2 378.9
31/08 08:00 9.3 98 8.81 9 11 15 1031.3 0.2 20.2 28.3 43.9 115.1 108.9 374.3
31/08 07:50 9.5 98 8.92 9.2 11 15 1031.3 0.2 20.5 28.5 44.3 116.1 110.2 378.9
31/08 07:40 9.4 98 8.87 9.1 11 15 1031.3 0 20.4 28.4 44.1 115.6 109.6 376.9
31/08 07:30 9.6 98 8.98 9.3 11 13 1031.3 0 20.6 28.5 44.5 116.6 110.9 381.4
31/08 07:20 9.3 98 8.81 9 9 13 1031.3 0 20.2 28.3 43.9 115.1 108.9 374.3
31/08 07:10 9.2 98 8.75 8.9 9 15 1031.3 0 20.1 28.3 43.7 114.5 108.2 371.8
31/08 07:00 9.2 98 8.75 8.9 11 15 1031.4 0 20.1 28.3 43.7 114.5 108.2 371.8
31/08 06:50 9.3 98 8.81 9 11 15 1031.3 0 20.2 28.3 43.9 115.1 108.9 374.3
31/08 06:40 9.4 98 8.87 9.1 13 15 1031.3 0 20.4 28.4 44.1 115.6 109.6 376.9
31/08 06:30 9.4 98 8.87 9.1 11 15 1031.3 0 20.4 28.4 44.1 115.6 109.6 376.9
31/08 06:20 9.5 98 8.92 9.2 11 15 1031.2 0 20.5 28.5 44.3 116.0 110.2 378.9
31/08 06:10 9.6 97 8.89 9.1 9 13 1031.2 0 20.4 28.4 44.1 115.5 109.6 376.9
31/08 06:00 9.8 97 9 9.3 9 13 1031.2 0 20.6 28.5 44.4 116.5 110.9 381.4
31/08 05:50 9.7 97 8.94 9.2 9 15 1031.2 0 20.5 28.4 44.2 116.0 110.2 378.9
31/08 05:40 9.9 97 9.06 9.4 9 13 1031.1 0 20.8 28.6 44.6 117.1 111.6 383.9
31/08 05:30 9.9 97 9.06 9.4 11 13 1031.2 0 20.8 28.6 44.6 117.1 111.6 383.9
31/08 05:20 10.1 97 9.17 9.6 9 13 1031.2 0 21.0 28.7 45.0 118.1 112.9 388.4
31/08 05:10 10.4 97 9.35 9.9 9 13 1031.3 0 21.3 28.9 45.6 119.7 115.0 396.0
31/08 05:00 10.5 97 9.41 10 7 11 1031.2 0 21.5 29.0 45.8 120.2 115.7 398.5
31/08 04:50 10.7 97 9.53 10.2 9 13 1031.2 0 21.7 29.1 46.2 121.3 117.2 403.5
31/08 04:40 10.9 97 9.65 10.4 7 11 1031.2 0 22.0 29.3 46.6 122.4 118.6 408.5
31/08 04:30 11 97 9.71 10.5 9 13 1031.2 0 22.1 29.3 46.9 123.0 119.3 411.0
31/08 04:20 11 96 9.61 10.4 9 11 1031.2 0 21.9 29.2 46.4 121.8 117.9 405.9
31/08 04:10 11.2 97 9.83 10.7 7 9 1031.2 0 22.3 29.5 47.3 124.1 120.7 416.0
31/08 04:00 11.2 97 9.83 10.7 7 9 1031.3 0 22.3 29.5 47.3 124.1 120.7 416.0
31/08 03:50 11 96 9.61 10.4 7 11 1031.4 0 21.9 29.2 46.4 121.8 117.9 406.0
31/08 03:40 11 96 9.61 10.4 7 11 1031.4 0 21.9 29.2 46.4 121.8 117.9 406.0
31/08 03:30 11 96 9.61 10.4 9 11 1031.5 0 21.9 29.2 46.4 121.8 117.9 406.0
31/08 03:20 11.1 96 9.67 10.5 9 11 1031.6 0 22.0 29.3 46.6 122.4 118.6 408.6
31/08 03:10 11.2 97 9.83 10.7 9 15 1031.7 0 22.3 29.5 47.3 124.1 120.8 416.2
31/08 03:00 11.1 97 9.77 10.6 9 13 1031.8 0 22.2 29.4 47.1 123.6 120.1 413.7
31/08 02:50 10.9 97 9.65 10.4 9 13 1031.9 0 22.0 29.3 46.7 122.5 118.7 408.7
31/08 02:40 10.7 97 9.53 10.2 9 9 1032 0 21.7 29.2 46.3 121.4 117.2 403.7
31/08 02:30 10.2 97 9.23 9.7 9 15 1032 0 21.1 28.8 45.3 118.7 113.7 391.2
31/08 02:20 9.5 96 8.74 8.9 9 11 1032.1 0 20.1 28.2 43.5 114.1 107.7 370.1
31/08 02:10 8.9 96 8.41 8.3 9 11 1032.1 0 19.4 27.8 42.4 111.1 103.8 356.5
31/08 02:00 9.2 97 8.66 8.7 9 13 1032.1 0 19.9 28.1 43.3 113.6 106.9 367.5
31/08 01:50 8.3 95 8.01 7.5 6 7 1032.2 0 18.6 27.3 41.0 107.4 98.9 339.4
31/08 01:40 9.1 96 8.52 8.5 7 9 1032.2 0 19.6 27.9 42.8 112.1 105.1 361.1
31/08 01:30 9 96 8.47 8.4 9 9 1032.3 0 19.5 27.9 42.6 111.7 104.5 359.1
31/08 01:20 9.1 96 8.52 8.5 9 9 1032.5 0 19.6 27.9 42.8 112.1 105.1 361.1
31/08 01:10 9 95 8.38 8.2 7 9 1032.6 0 19.3 27.7 42.3 110.7 103.3 354.7
31/08 01:00 9.6 95 8.7 8.8 9 11 1032.6 0 20.0 28.1 43.3 113.5 107.0 367.8
31/08 00:50 9.8 95 8.82 9 9 11 1032.5 0 20.2 28.2 43.7 114.6 108.4 372.8
31/08 00:40 9.9 95 8.87 9.1 9 11 1032.5 0 20.3 28.3 43.9 115.0 109.0 374.8
31/08 00:30 9.8 95 8.82 9 9 11 1032.3 0 20.2 28.2 43.7 114.6 108.4 372.7
31/08 00:20 9.8 95 8.82 9 11 13 1032.3 0 20.2 28.2 43.7 114.6 108.4 372.7
31/08 00:10 9.8 95 8.82 9 11 13 1032.4 0 20.2 28.2 43.7 114.6 108.4 372.8
31/08 00:00 9.9 95 8.87 9.1 11 13 1032.5 0 20.3 28.3 43.9 115.0 109.0 374.8
30/08 23:50 9.9 95 8.87 9.1 11 13 1032.7 0 20.3 28.3 43.9 115.0 109.0 374.9
30/08 23:40 10 95 8.93 9.2 11 11 1032.7 0 20.5 28.4 44.1 115.6 109.7 377.4
30/08 23:30 10 95 8.93 9.2 11 13 1032.9 0 20.5 28.4 44.1 115.6 109.7 377.4
30/08 23:20 10.1 95 8.99 9.3 11 13 1033 0 20.6 28.5 44.3 116.2 110.5 380.0
30/08 23:10 9.8 94 8.72 8.9 9 11 1033 0 20.0 28.1 43.3 113.5 107.0 367.9
30/08 23:00 9.9 94 8.78 9 11 13 1033.2 0 20.1 28.2 43.5 114.1 107.8 370.5
30/08 22:50 9.8 94 8.72 8.9 11 13 1033.2 0 20.0 28.1 43.3 113.5 107.1 368.0
30/08 22:40 10 94 8.83 9.1 9 11 1033.3 0 20.2 28.2 43.7 114.5 108.4 372.6
30/08 22:30 10.1 93 8.8 9 9 11 1033.3 0 20.2 28.1 43.5 114.0 107.8 370.6
30/08 22:20 10.5 93 9.02 9.4 9 9 1033.3 0 20.6 28.4 44.2 115.9 110.3 379.6
30/08 22:10 10.8 94 9.29 9.9 11 11 1033.3 0 21.2 28.8 45.2 118.6 113.8 391.6
30/08 22:00 10.4 93 8.97 9.3 9 11 1033.3 0 20.5 28.3 44.1 115.5 109.8 377.6
30/08 21:50 10.5 93 9.02 9.4 9 9 1033.3 0 20.6 28.4 44.2 115.9 110.3 379.6

Last Refresh: 31-Aug-2026 14:44:36

Bureau of Meteorology